Time;durP1;ratioP1;P1;durP2;ratioP2;P2;SDS_P1;SDS_P2;PMS_P1;PMS_P2;Temp;Humidity;BMP_temperature;BMP_pressure;BME280_temperature;BME280_humidity;BME280_pressure;Samples;Min_cycle;Max_cycle;Signal;HPM_P1;HPM_P2
2024/03/03 00:00:07;;;;;;;61.30;24.40;;;;;;;5.99;54.52;100392.98;108036;1253;70598;-67
2024/03/03 00:02:34;;;;;;;69.40;24.30;;;;;;;6.04;54.70;100390.30;108141;1253;71847;-65
2024/03/03 00:05:01;;;;;;;52.00;22.90;;;;;;;6.08;54.79;100390.95;108046;1253;61858;-67
2024/03/03 00:07:29;;;;;;;58.00;22.90;;;;;;;6.20;54.60;100388.33;108039;1253;60432;-67
2024/03/03 00:09:56;;;;;;;65.30;24.10;;;;;;;6.31;54.37;100384.85;107997;1257;73611;-67
2024/03/03 00:12:23;;;;;;;73.50;25.70;;;;;;;6.19;54.95;100384.70;108098;1253;70491;-67
2024/03/03 00:14:50;;;;;;;59.70;25.00;;;;;;;6.26;54.91;100381.78;108074;1253;73131;-65
2024/03/03 00:17:18;;;;;;;61.60;24.30;;;;;;;6.24;55.12;100379.55;108094;1253;59249;-64
2024/03/03 00:19:45;;;;;;;62.40;24.50;;;;;;;6.25;55.22;100380.05;108132;1253;60333;-67
2024/03/03 00:22:11;;;;;;;47.00;20.80;;;;;;;6.26;55.52;100376.38;108104;1253;73634;-66
2024/03/03 00:24:38;;;;;;;52.90;21.60;;;;;;;6.20;55.66;100374.91;108037;1257;70406;-67
2024/03/03 00:27:05;;;;;;;52.70;22.20;;;;;;;6.11;55.92;100370.67;107842;1254;72499;-66
2024/03/03 00:29:31;;;;;;;49.40;22.10;;;;;;;6.15;56.13;100374.61;108091;1256;60962;-66
2024/03/03 00:31:58;;;;;;;49.40;21.50;;;;;;;6.26;55.73;100367.85;108170;1254;60589;-67
2024/03/03 00:34:25;;;;;;;60.50;23.80;;;;;;;6.32;55.65;100366.88;108178;1256;74277;-67
2024/03/03 00:36:52;;;;;;;58.80;25.20;;;;;;;6.31;55.67;100366.70;108273;1254;71455;-67
2024/03/03 00:39:18;;;;;;;76.70;28.90;;;;;;;6.40;55.52;100367.27;108229;1254;60414;-66
2024/03/03 00:41:45;;;;;;;68.40;25.40;;;;;;;6.39;55.64;100366.40;108128;1252;60944;-65
2024/03/03 00:44:12;;;;;;;77.60;29.50;;;;;;;6.37;55.76;100366.96;108228;1251;60356;-64
2024/03/03 00:46:38;;;;;;;74.30;28.30;;;;;;;6.43;55.57;100367.75;108170;1252;74381;-67
2024/03/03 00:49:05;;;;;;;68.10;26.60;;;;;;;6.48;55.61;100368.36;108138;1254;70149;-67
2024/03/03 00:51:32;;;;;;;66.70;26.80;;;;;;;6.52;55.57;100365.16;108240;1254;72048;-66
2024/03/03 00:53:59;;;;;;;71.90;27.10;;;;;;;6.51;55.51;100360.46;108259;1252;60389;-67
2024/03/03 00:56:26;;;;;;;76.90;28.80;;;;;;;6.54;55.53;100362.16;108203;1252;60357;-66
2024/03/03 00:58:53;;;;;;;65.80;26.20;;;;;;;6.57;55.38;100358.46;108218;1253;73692;-67
2024/03/03 01:01:19;;;;;;;66.70;27.00;;;;;;;6.53;55.58;100361.83;108097;1253;70685;-67
2024/03/03 01:03:46;;;;;;;71.70;28.40;;;;;;;6.54;55.68;100358.84;108090;1253;72412;-66
2024/03/03 01:06:14;;;;;;;55.20;25.00;;;;;;;6.56;55.86;100361.08;108299;1252;62480;-67
2024/03/03 01:08:41;;;;;;;70.60;27.30;;;;;;;6.63;55.78;100360.61;108167;1253;60470;-67
2024/03/03 01:11:07;;;;;;;63.50;25.90;;;;;;;6.72;55.82;100361.68;108324;1254;74481;-67
2024/03/03 01:13:34;;;;;;;55.50;25.70;;;;;;;6.77;55.70;100360.20;108121;1253;70565;-67
2024/03/03 01:16:01;;;;;;;66.40;26.80;;;;;;;6.87;55.49;100362.10;108290;1254;71457;-67
2024/03/03 01:18:29;;;;;;;67.30;26.60;;;;;;;6.88;55.65;100364.19;108038;1254;61186;-67
2024/03/03 01:20:56;;;;;;;59.00;25.50;;;;;;;6.95;55.70;100356.20;108080;1252;60387;-68
2024/03/03 01:23:22;;;;;;;64.70;26.70;;;;;;;7.02;55.60;100357.13;108261;1254;72856;-67
2024/03/03 01:25:49;;;;;;;62.10;25.90;;;;;;;6.92;55.94;100356.95;108118;1254;70289;-67
2024/03/03 01:28:16;;;;;;;68.40;27.50;;;;;;;6.85;56.02;100357.95;108264;1254;72456;-65
2024/03/03 01:30:43;;;;;;;54.40;24.10;;;;;;;6.90;56.16;100361.35;108041;1254;60976;-66
2024/03/03 01:33:10;;;;;;;69.10;28.00;;;;;;;6.92;56.08;100358.52;108240;1253;60230;-66
2024/03/03 01:35:36;;;;;;;56.20;25.80;;;;;;;7.07;55.84;100359.83;108233;1253;73622;-66
2024/03/03 01:38:04;;;;;;;58.80;25.30;;;;;;;7.15;55.75;100361.40;108309;1252;68197;-65
2024/03/03 01:40:30;;;;;;;54.70;25.10;;;;;;;7.18;55.73;100366.24;108259;1254;72752;-65
2024/03/03 01:42:58;;;;;;;62.50;25.50;;;;;;;7.16;55.84;100367.67;108055;1253;60866;-66
2024/03/03 01:45:24;;;;;;;64.30;24.00;;;;;;;7.20;55.61;100368.48;108163;1253;60176;-67
2024/03/03 01:47:52;;;;;;;59.90;24.30;;;;;;;7.26;55.63;100365.91;108251;1256;73890;-65
2024/03/03 01:50:20;;;;;;;49.70;21.60;;;;;;;7.14;55.92;100365.96;108109;1253;70916;-66
2024/03/03 01:52:46;;;;;;;61.60;21.40;;;;;;;7.17;55.62;100365.91;107872;1254;72569;-66
2024/03/03 01:55:14;;;;;;;57.20;20.50;;;;;;;7.19;55.52;100364.66;108241;1253;60325;-65
2024/03/03 01:57:41;;;;;;;52.20;19.60;;;;;;;7.27;55.48;100362.92;108126;1253;60030;-67
2024/03/03 02:00:11;;;;;;;45.20;19.80;;;;;;;7.35;55.41;100361.02;108046;1252;72336;-67
2024/03/03 02:02:38;;;;;;;61.40;22.40;;;;;;;7.39;55.09;100362.16;108135;1254;69151;-66
2024/03/03 02:05:06;;;;;;;44.20;20.20;;;;;;;7.37;55.28;100362.39;108235;1254;72685;-66
2024/03/03 02:07:33;;;;;;;45.00;19.30;;;;;;;7.35;55.44;100361.18;108022;1254;61084;-65
2024/03/03 02:10:00;;;;;;;50.20;19.70;;;;;;;7.42;55.15;100362.63;108024;1254;60357;-66
2024/03/03 02:12:28;;;;;;;49.80;19.70;;;;;;;7.47;54.98;100361.14;108095;1254;74381;-66
2024/03/03 02:14:56;;;;;;;46.20;18.30;;;;;;;7.60;54.56;100359.45;108152;1253;70166;-66
2024/03/03 02:17:23;;;;;;;48.80;18.70;;;;;;;7.76;54.06;100361.21;108158;1252;72589;-67
2024/03/03 02:19:50;;;;;;;45.80;18.70;;;;;;;7.72;54.02;100363.05;108089;1254;60405;-66
2024/03/03 02:22:17;;;;;;;55.40;19.70;;;;;;;7.62;54.19;100363.60;108199;1253;60344;-67
2024/03/03 02:24:44;;;;;;;48.50;19.10;;;;;;;7.59;54.37;100361.41;108186;1253;73623;-66
2024/03/03 02:27:11;;;;;;;39.70;17.50;;;;;;;7.61;54.16;100363.45;108195;1254;69730;-66
2024/03/03 02:29:37;;;;;;;45.70;17.70;;;;;;;7.59;54.24;100360.00;108084;1253;73017;-67
2024/03/03 02:32:04;;;;;;;47.80;17.70;;;;;;;7.66;54.16;100363.00;108108;1254;60518;-66
2024/03/03 02:34:31;;;;;;;41.90;17.50;;;;;;;7.63;54.00;100363.58;108216;1253;60405;-67
2024/03/03 02:36:58;;;;;;;44.20;18.50;;;;;;;7.41;54.43;100359.49;108174;1253;74254;-66
2024/03/03 02:39:24;;;;;;;55.20;18.10;;;;;;;7.50;54.11;100361.77;108297;1256;70005;-67
2024/03/03 02:41:51;;;;;;;33.00;16.60;;;;;;;7.56;53.91;100361.98;108278;1253;73061;-67
2024/03/03 02:44:17;;;;;;;38.60;16.80;;;;;;;7.59;53.74;100363.50;108037;1254;61090;-67
2024/03/03 02:46:48;;;;;;;49.40;15.80;;;;;;;7.65;53.46;100361.63;108253;1252;60309;-67
2024/03/03 02:49:15;;;;;;;39.70;16.80;;;;;;;7.64;53.20;100364.10;108224;1254;73779;-67
2024/03/03 02:51:42;;;;;;;44.00;15.60;;;;;;;7.69;52.92;100362.05;108349;1253;70481;-66
2024/03/03 02:54:09;;;;;;;37.20;16.50;;;;;;;7.76;52.86;100364.52;108300;1254;71415;-66
2024/03/03 02:56:37;;;;;;;40.90;17.20;;;;;;;7.80;52.79;100363.58;108282;1253;60929;-67
2024/03/03 02:59:04;;;;;;;39.70;15.20;;;;;;;7.81;52.70;100364.06;108251;1253;60441;-66
2024/03/03 03:01:31;;;;;;;31.90;14.30;;;;;;;7.74;52.58;100364.75;108018;1253;73215;-65
2024/03/03 03:03:58;;;;;;;35.50;15.70;;;;;;;7.67;52.51;100365.42;108063;1258;68944;-64
2024/03/03 03:06:25;;;;;;;36.00;15.40;;;;;;;7.75;52.28;100368.40;108211;1253;72767;-66
2024/03/03 03:08:51;;;;;;;36.90;14.40;;;;;;;7.74;52.14;100371.91;108005;1254;61049;-66
2024/03/03 03:11:18;;;;;;;38.40;15.30;;;;;;;7.69;52.34;100374.82;108272;1252;60422;-65
2024/03/03 03:13:45;;;;;;;40.80;15.30;;;;;;;7.79;52.00;100370.59;108191;1252;72850;-66
2024/03/03 03:16:12;;;;;;;38.20;15.10;;;;;;;7.78;51.77;100372.55;108230;1253;68939;-67
2024/03/03 03:18:38;;;;;;;38.20;14.80;;;;;;;7.84;51.56;100370.30;108249;1254;72196;-66
2024/03/03 03:21:08;;;;;;;33.80;15.50;;;;;;;7.73;51.83;100372.13;108258;1253;61305;-65
2024/03/03 03:23:35;;;;;;;32.80;14.40;;;;;;;7.68;51.91;100371.01;108247;1254;60531;-66
2024/03/03 03:26:02;;;;;;;34.80;15.00;;;;;;;7.68;51.82;100364.36;108215;1253;74748;-66
2024/03/03 03:28:29;;;;;;;36.40;14.90;;;;;;;7.70;51.62;100366.58;108230;1253;70692;-66
2024/03/03 03:30:55;;;;;;;34.70;15.90;;;;;;;7.73;51.53;100364.08;108266;1252;73061;-66
2024/03/03 03:33:22;;;;;;;42.00;16.70;;;;;;;7.75;51.40;100366.99;108221;1251;61162;-66
2024/03/03 03:35:49;;;;;;;29.80;14.00;;;;;;;7.68;51.61;100366.45;108097;1256;60319;-66
2024/03/03 03:38:15;;;;;;;31.00;13.70;;;;;;;7.71;51.27;100364.98;108100;1256;74275;-65
2024/03/03 03:40:42;;;;;;;26.20;13.70;;;;;;;7.71;51.33;100359.56;108103;1253;69540;-68
2024/03/03 03:43:09;;;;;;;32.10;15.50;;;;;;;7.71;51.40;100364.29;108074;1253;72609;-67
2024/03/03 03:45:36;;;;;;;31.90;15.30;;;;;;;7.75;51.13;100361.05;108087;1253;61207;-66
2024/03/03 03:48:03;;;;;;;30.00;13.80;;;;;;;7.66;51.26;100367.36;108111;1253;60399;-66
2024/03/03 03:50:30;;;;;;;24.90;13.20;;;;;;;7.61;51.21;100370.61;108125;1253;73860;-68
2024/03/03 03:52:56;;;;;;;34.40;13.40;;;;;;;7.62;51.24;100370.42;108097;1253;70826;-65
2024/03/03 03:55:23;;;;;;;32.00;13.80;;;;;;;7.66;51.12;100371.39;108086;1253;73085;-66
2024/03/03 03:57:50;;;;;;;33.30;13.30;;;;;;;7.71;50.92;100369.70;108081;1253;60835;-66
2024/03/03 04:00:17;;;;;;;29.90;13.70;;;;;;;7.74;50.87;100367.36;107989;1253;60408;-65
2024/03/03 04:02:46;;;;;;;33.00;13.30;;;;;;;7.79;50.84;100369.70;108133;1253;72679;-67
2024/03/03 04:05:13;;;;;;;26.70;13.80;;;;;;;7.81;50.94;100373.88;108104;1253;70051;-66
2024/03/03 04:07:41;;;;;;;32.20;13.90;;;;;;;7.84;50.69;100372.41;108157;1253;72639;-66
2024/03/03 04:10:09;;;;;;;29.70;12.60;;;;;;;7.88;50.69;100372.14;108206;1253;60521;-66
2024/03/03 04:12:36;;;;;;;33.60;13.00;;;;;;;7.90;50.44;100367.73;108220;1253;60348;-68
2024/03/03 04:15:04;;;;;;;33.70;13.60;;;;;;;7.81;50.59;100370.20;108196;1256;72390;-66
2024/03/03 04:17:31;;;;;;;25.00;11.80;;;;;;;7.68;50.82;100368.73;108158;1253;70965;-68
2024/03/03 04:19:57;;;;;;;34.00;12.50;;;;;;;7.67;50.91;100368.02;108131;1252;71916;-66
2024/03/03 04:22:25;;;;;;;26.40;12.10;;;;;;;7.76;50.58;100368.56;108188;1253;61204;-66
2024/03/03 04:24:53;;;;;;;31.90;13.30;;;;;;;7.75;50.27;100375.22;108221;1251;60347;-66
2024/03/03 04:27:19;;;;;;;29.50;12.40;;;;;;;7.77;50.29;100372.02;108136;1253;74302;-66
2024/03/03 04:29:47;;;;;;;28.20;12.80;;;;;;;7.76;50.43;100370.83;108154;1253;70513;-66
2024/03/03 04:32:14;;;;;;;28.10;12.70;;;;;;;7.74;50.34;100371.55;108167;1252;72821;-66
2024/03/03 04:34:41;;;;;;;26.60;12.90;;;;;;;7.73;50.23;100376.83;108242;1251;61981;-67
2024/03/03 04:37:08;;;;;;;22.90;11.70;;;;;;;7.80;50.11;100371.63;108338;1251;60347;-66
2024/03/03 04:39:35;;;;;;;26.90;12.50;;;;;;;7.88;49.86;100375.63;108343;1251;73781;-65
2024/03/03 04:42:03;;;;;;;25.10;11.90;;;;;;;7.77;50.04;100373.27;108253;1251;68975;-66
2024/03/03 04:44:30;;;;;;;26.70;11.20;;;;;;;7.84;49.97;100376.59;108311;1251;72676;-67
2024/03/03 04:46:57;;;;;;;23.90;11.90;;;;;;;7.83;49.83;100374.52;108242;1253;61580;-67
2024/03/03 04:49:24;;;;;;;28.10;12.50;;;;;;;7.79;49.79;100377.05;108301;1252;60558;-66
2024/03/03 04:51:50;;;;;;;27.10;11.90;;;;;;;7.76;49.95;100374.30;108227;1255;73711;-66
2024/03/03 04:54:17;;;;;;;33.10;12.00;;;;;;;7.66;50.04;100372.42;108192;1253;60416;-67
2024/03/03 04:56:43;;;;;;;24.00;12.10;;;;;;;7.68;50.17;100374.66;108210;1253;73090;-67
2024/03/03 04:59:10;;;;;;;25.70;11.50;;;;;;;7.74;49.89;100372.78;108196;1252;61065;-66
2024/03/03 05:01:41;;;;;;;26.30;10.80;;;;;;;7.73;49.85;100372.11;108277;1253;60303;-67
2024/03/03 05:04:09;;;;;;;26.90;10.60;;;;;;;7.64;49.90;100376.67;108139;1253;73624;-67
2024/03/03 05:06:45;;;;;;;24.60;12.00;;;;;;;7.63;49.79;100380.02;108199;1253;70186;-66
2024/03/03 05:09:11;;;;;;;22.70;10.70;;;;;;;7.48;50.18;100380.15;108155;1253;71148;-67
2024/03/03 05:11:38;;;;;;;22.00;10.40;;;;;;;7.63;49.95;100388.40;108133;1253;61144;-66
2024/03/03 05:14:05;;;;;;;20.70;11.10;;;;;;;7.69;49.64;100386.88;108229;1252;60765;-65
2024/03/03 05:16:32;;;;;;;25.30;9.90;;;;;;;7.79;49.17;100388.08;108186;1252;74116;-65
2024/03/03 05:18:58;;;;;;;21.00;10.90;;;;;;;7.83;49.35;100389.92;108213;1253;70167;-65
2024/03/03 05:21:25;;;;;;;23.80;11.10;;;;;;;7.85;48.96;100387.77;108112;1253;73277;-67
2024/03/03 05:23:52;;;;;;;22.50;10.20;;;;;;;7.85;49.16;100388.11;108158;1253;60483;-67
2024/03/03 05:26:19;;;;;;;19.50;10.00;;;;;;;7.92;48.66;100389.52;108195;1253;60352;-65
2024/03/03 05:28:50;;;;;;;25.60;10.10;;;;;;;7.96;48.55;100390.83;108189;1253;74398;-66
2024/03/03 05:31:17;;;;;;;20.00;9.20;;;;;;;7.99;48.62;100388.17;108193;1253;70579;-67
2024/03/03 05:33:43;;;;;;;19.10;9.20;;;;;;;7.96;48.34;100392.95;108244;1251;73411;-67
2024/03/03 05:36:13;;;;;;;21.70;10.10;;;;;;;7.90;48.49;100392.20;108257;1255;62722;-67
2024/03/03 05:38:40;;;;;;;23.80;8.80;;;;;;;8.04;48.06;100390.32;108285;1251;60066;-67
2024/03/03 05:41:06;;;;;;;19.60;8.70;;;;;;;8.11;47.64;100392.43;108319;1251;73646;-67
2024/03/03 05:43:33;;;;;;;21.60;8.70;;;;;;;8.21;47.66;100390.98;108277;1251;70256;-66
2024/03/03 05:46:00;;;;;;;17.20;9.00;;;;;;;8.15;47.63;100391.64;108283;1251;73246;-66
2024/03/03 05:48:28;;;;;;;19.90;8.90;;;;;;;8.11;47.66;100390.86;108268;1251;61127;-68
2024/03/03 05:50:55;;;;;;;17.90;8.60;;;;;;;8.09;47.82;100392.98;108281;1253;60396;-67
2024/03/03 05:53:22;;;;;;;15.80;8.10;;;;;;;8.22;47.49;100393.75;108339;1251;73760;-67
2024/03/03 05:55:48;;;;;;;17.10;8.90;;;;;;;8.26;47.10;100394.36;108260;1251;70297;-65
2024/03/03 05:58:15;;;;;;;17.80;7.50;;;;;;;8.23;46.93;100394.95;108287;1257;72041;-66
2024/03/03 06:00:44;;;;;;;17.80;7.90;;;;;;;8.29;46.89;100388.89;108217;1253;61109;-68
2024/03/03 06:03:11;;;;;;;17.40;8.50;;;;;;;8.31;46.72;100391.98;108234;1251;60581;-66
2024/03/03 06:05:37;;;;;;;15.20;8.00;;;;;;;8.47;46.54;100387.42;108189;1251;73888;-67
2024/03/03 06:08:05;;;;;;;13.90;7.20;;;;;;;8.58;45.97;100386.63;108216;1251;70493;-67
2024/03/03 06:10:31;;;;;;;14.60;7.30;;;;;;;8.63;45.63;100389.66;108258;1255;72994;-65
2024/03/03 06:12:58;;;;;;;18.10;7.50;;;;;;;8.73;45.52;100392.58;108244;1251;62426;-67
2024/03/03 06:15:25;;;;;;;20.20;7.60;;;;;;;8.63;45.64;100391.59;108266;1251;60405;-65
2024/03/03 06:17:52;;;;;;;17.20;6.90;;;;;;;8.70;45.50;100391.42;108184;1251;74407;-66
2024/03/03 06:20:18;;;;;;;18.40;6.90;;;;;;;8.83;45.26;100394.58;108353;1251;70634;-66
2024/03/03 06:22:45;;;;;;;13.90;6.50;;;;;;;8.88;44.97;100392.53;108300;1251;71423;-67
2024/03/03 06:25:12;;;;;;;23.80;7.20;;;;;;;8.67;45.06;100392.52;108237;1251;61277;-66
2024/03/03 06:27:39;;;;;;;13.90;6.60;;;;;;;8.67;45.34;100392.20;108317;1252;60511;-67
2024/03/03 06:30:10;;;;;;;12.40;6.30;;;;;;;8.98;44.64;100392.27;108349;1251;73680;-67
2024/03/03 06:32:37;;;;;;;21.20;6.80;;;;;;;9.23;44.50;100394.77;108273;1251;70358;-67
2024/03/03 06:35:04;;;;;;;16.90;6.80;;;;;;;9.63;43.97;100395.77;108199;1253;72501;-67
2024/03/03 06:37:31;;;;;;;16.00;6.20;;;;;;;10.04;42.50;100395.38;108212;1253;61176;-67
2024/03/03 06:39:58;;;;;;;14.50;6.80;;;;;;;10.56;41.54;100396.77;108172;1253;60499;-68
2024/03/03 06:42:24;;;;;;;13.30;6.50;;;;;;;11.12;40.77;100392.95;108203;1252;73777;-68
2024/03/03 06:44:51;;;;;;;15.60;6.60;;;;;;;11.33;39.97;100392.38;108198;1253;70228;-66
2024/03/03 06:47:18;;;;;;;10.60;5.90;;;;;;;11.81;39.54;100394.67;108211;1252;71411;-68
2024/03/03 06:49:44;;;;;;;10.50;5.80;;;;;;;12.44;38.28;100389.95;108157;1253;60797;-67
2024/03/03 06:52:11;;;;;;;15.20;6.50;;;;;;;13.02;36.72;100389.30;108183;1255;59688;-70
2024/03/03 06:54:38;;;;;;;8.60;4.70;;;;;;;13.53;35.74;100386.92;108222;1253;72686;-68
2024/03/03 06:57:04;;;;;;;8.60;5.00;;;;;;;13.98;34.72;100390.13;108139;1256;60413;-69
2024/03/03 06:59:32;;;;;;;14.50;5.20;;;;;;;14.31;34.04;100390.69;108175;1253;72678;-69
2024/03/03 07:01:59;;;;;;;13.50;5.20;;;;;;;14.72;33.31;100390.64;108223;1253;60450;-68
2024/03/03 07:04:26;;;;;;;12.20;5.30;;;;;;;14.89;32.77;100390.11;108217;1253;60528;-67
2024/03/03 07:06:54;;;;;;;14.10;5.60;;;;;;;15.17;32.17;100387.48;108232;1253;73843;-68
2024/03/03 07:09:24;;;;;;;12.30;5.00;;;;;;;15.58;31.55;100391.29;108233;1253;68960;-68
2024/03/03 07:11:51;;;;;;;21.60;4.90;;;;;;;15.78;30.84;100392.74;108190;1253;72743;-68
2024/03/03 07:14:18;;;;;;;13.70;4.50;;;;;;;15.76;30.46;100396.40;108277;1253;60291;-69
2024/03/03 07:16:45;;;;;;;15.00;4.60;;;;;;;15.71;30.74;100395.55;108179;1253;60388;-69
2024/03/03 07:19:12;;;;;;;16.30;5.10;;;;;;;15.85;30.62;100396.77;108204;1252;73624;-68
2024/03/03 07:21:39;;;;;;;14.10;5.40;;;;;;;15.80;30.41;100406.45;108270;1253;70237;-68
2024/03/03 07:24:06;;;;;;;16.30;5.10;;;;;;;15.46;30.41;100402.60;108219;1253;72687;-68
2024/03/03 07:26:33;;;;;;;10.70;5.00;;;;;;;14.95;31.01;100402.05;108177;1253;60442;-69
2024/03/03 07:29:02;;;;;;;7.70;3.90;;;;;;;14.00;32.15;100406.95;108218;1253;60438;-68
2024/03/03 07:31:30;;;;;;;8.80;4.90;;;;;;;13.35;33.03;100406.39;108223;1253;73729;-68
2024/03/03 07:35:51;;;;;;;13.80;4.80;;;;;;;11.80;36.19;100409.88;104934;1289;600239;-67
2024/03/03 07:38:18;;;;;;;13.10;5.00;;;;;;;12.78;34.75;100404.59;107296;1264;59011;-67
2024/03/03 07:40:46;;;;;;;9.60;5.20;;;;;;;12.64;34.82;100406.73;107300;1269;59608;-67
2024/03/03 07:43:14;;;;;;;11.30;4.40;;;;;;;12.32;35.10;100407.35;107316;1264;71698;-67
2024/03/03 07:45:42;;;;;;;11.50;4.90;;;;;;;12.00;35.53;100413.33;107328;1264;70049;-68
2024/03/03 07:48:10;;;;;;;15.00;4.90;;;;;;;11.67;36.40;100411.18;107369;1264;72664;-68
2024/03/03 07:50:38;;;;;;;13.00;5.70;;;;;;;11.42;36.95;100413.67;107469;1263;121126;-68
2024/03/03 07:53:05;;;;;;;10.90;5.50;;;;;;;11.58;36.94;100412.05;107699;1260;59254;-67
2024/03/03 07:55:33;;;;;;;8.20;4.70;;;;;;;11.44;36.99;100414.67;107642;1261;70929;-68
2024/03/03 07:58:00;;;;;;;9.40;4.90;;;;;;;11.15;37.69;100413.05;107537;1260;69059;-68
2024/03/03 08:00:33;;;;;;;10.30;4.60;;;;;;;11.17;37.83;100413.16;107594;1261;70372;-68
2024/03/03 08:03:02;;;;;;;10.30;4.70;;;;;;;11.16;37.85;100408.99;107624;1260;59533;-67
2024/03/03 08:05:32;;;;;;;9.90;4.10;;;;;;;11.26;37.73;100408.48;107651;1259;59390;-67
2024/03/03 08:08:03;;;;;;;10.00;4.70;;;;;;;11.35;37.65;100407.95;107966;1254;72973;-66
2024/03/03 08:10:31;;;;;;;8.70;4.10;;;;;;;11.32;37.71;100408.23;108020;1254;70096;-69
2024/03/03 08:12:58;;;;;;;8.50;4.70;;;;;;;11.28;37.96;100408.22;107949;1254;72377;-68
2024/03/03 08:15:26;;;;;;;10.30;4.50;;;;;;;11.34;37.97;100407.98;108005;1260;59532;-68
2024/03/03 08:17:54;;;;;;;14.10;4.10;;;;;;;11.40;37.94;100410.07;108013;1254;59559;-67
2024/03/03 08:20:29;;;;;;;15.90;5.10;;;;;;;11.35;38.00;100404.26;107970;1254;72761;-67
2024/03/03 08:22:57;;;;;;;8.60;4.60;;;;;;;11.43;37.85;100404.17;107978;1254;70083;-68
2024/03/03 08:25:24;;;;;;;17.50;5.00;;;;;;;11.12;37.91;100408.95;107979;1254;73608;-67
2024/03/03 08:28:01;;;;;;;13.40;4.80;;;;;;;11.23;37.32;100412.06;108018;1254;59848;-67
2024/03/03 08:30:28;;;;;;;13.10;4.40;;;;;;;11.27;37.24;100416.15;107995;1254;59942;-68
2024/03/03 08:32:56;;;;;;;12.20;4.70;;;;;;;11.38;37.21;100414.51;107945;1254;72035;-68
2024/03/03 08:35:26;;;;;;;7.70;4.80;;;;;;;11.35;37.01;100418.33;107943;1257;69510;-67
2024/03/03 08:37:54;;;;;;;11.80;5.10;;;;;;;11.30;36.95;100422.21;107909;1256;71527;-69
2024/03/03 08:40:23;;;;;;;19.20;5.30;;;;;;;11.22;37.12;100422.67;107908;1257;59545;-68
2024/03/03 08:42:52;;;;;;;8.10;4.50;;;;;;;11.17;37.12;100421.95;107909;1256;59540;-68
2024/03/03 08:45:21;;;;;;;8.50;4.70;;;;;;;11.03;37.21;100430.53;107980;1255;71991;-67
2024/03/03 08:47:49;;;;;;;13.20;5.40;;;;;;;11.01;37.33;100423.20;107892;1260;68721;-68
2024/03/03 08:50:16;;;;;;;7.50;5.10;;;;;;;11.10;37.16;100430.09;107915;1256;71352;-68
2024/03/03 08:52:44;;;;;;;13.70;5.00;;;;;;;11.24;37.02;100429.96;108002;1257;59570;-67
2024/03/03 08:55:11;;;;;;;16.40;5.50;;;;;;;11.36;36.81;100428.83;107994;1257;59633;-67
2024/03/03 08:57:39;;;;;;;8.40;4.70;;;;;;;11.38;36.47;100427.52;107978;1256;73105;-67
2024/03/03 09:00:12;;;;;;;12.50;4.90;;;;;;;11.38;36.53;100427.70;108027;1257;69079;-68
2024/03/03 09:02:41;;;;;;;13.60;4.90;;;;;;;11.58;36.33;100428.56;107971;1256;72686;-68
2024/03/03 09:05:10;;;;;;;18.10;5.40;;;;;;;11.82;36.04;100430.35;108003;1256;59496;-68
2024/03/03 09:07:39;;;;;;;9.70;5.30;;;;;;;11.91;36.11;100430.56;107960;1256;61318;-68
2024/03/03 09:10:07;;;;;;;11.30;5.50;;;;;;;11.85;35.95;100432.17;107874;1257;72295;-68
2024/03/03 09:12:35;;;;;;;14.20;5.40;;;;;;;11.89;35.97;100433.09;107817;1257;70287;-68
2024/03/03 09:15:03;;;;;;;11.70;5.10;;;;;;;12.11;36.00;100436.15;107862;1257;72711;-67
2024/03/03 09:17:30;;;;;;;14.60;6.00;;;;;;;11.97;35.67;100439.48;107919;1256;59703;-68
2024/03/03 09:19:58;;;;;;;12.80;5.60;;;;;;;12.14;35.49;100431.78;107856;1256;59406;-68
2024/03/03 09:22:25;;;;;;;9.30;5.40;;;;;;;12.41;35.43;100431.78;107978;1257;75226;-68
2024/03/03 09:24:53;;;;;;;14.20;6.20;;;;;;;12.60;34.83;100425.23;107875;1257;70485;-68
2024/03/03 09:27:23;;;;;;;15.10;6.50;;;;;;;12.70;34.93;100425.89;107828;1256;71951;-68
2024/03/03 09:29:52;;;;;;;11.60;5.70;;;;;;;12.75;34.39;100423.72;108024;1257;59614;-68
2024/03/03 09:32:22;;;;;;;;;;;;;;;12.73;34.35;100423.30;107892;1258;59967;-68
2024/03/03 09:34:50;;;;;;;10.60;5.60;;;;;;;12.80;34.24;100425.28;107893;1257;73015;-68
2024/03/03 09:37:17;;;;;;;17.80;6.40;;;;;;;12.96;34.14;100422.35;107848;1257;70296;-68
2024/03/03 09:39:49;;;;;;;13.20;5.50;;;;;;;13.04;33.95;100418.11;107993;1256;71999;-68
2024/03/03 09:42:17;;;;;;;11.40;5.50;;;;;;;13.35;33.97;100416.46;107817;1256;59497;-68
2024/03/03 09:44:45;;;;;;;12.70;5.20;;;;;;;13.50;33.46;100417.38;107907;1257;58861;-68
2024/03/03 09:47:13;;;;;;;16.10;6.50;;;;;;;13.80;32.98;100420.77;107893;1257;73016;-68
2024/03/03 09:49:43;;;;;;;10.00;5.20;;;;;;;14.02;32.46;100417.66;107888;1256;68891;-69
2024/03/03 09:52:13;;;;;;;14.30;5.00;;;;;;;14.36;32.21;100415.31;108140;1254;72502;-68
2024/03/03 09:54:41;;;;;;;10.50;5.50;;;;;;;14.58;31.81;100407.42;108090;1254;59634;-68
2024/03/03 09:57:12;;;;;;;14.10;6.30;;;;;;;14.31;31.93;100412.61;108042;1253;60010;-68
2024/03/03 09:59:40;;;;;;;13.60;6.30;;;;;;;14.22;32.35;100408.42;108026;1254;75399;-69
2024/03/03 10:02:15;;;;;;;13.00;5.90;;;;;;;14.27;32.55;100404.33;108144;1254;71931;-68
2024/03/03 10:04:44;;;;;;;12.90;5.80;;;;;;;14.22;32.82;100409.13;107938;1254;73826;-67
2024/03/03 10:07:16;;;;;;;11.20;4.90;;;;;;;13.97;33.09;100405.50;108084;1254;59563;-68
2024/03/03 10:09:45;;;;;;;9.60;5.10;;;;;;;13.96;33.32;100406.46;108000;1256;59618;-68
2024/03/03 10:12:12;;;;;;;14.60;5.40;;;;;;;14.07;33.11;100409.13;108076;1254;75361;-68
2024/03/03 10:14:40;;;;;;;12.90;5.30;;;;;;;14.17;32.56;100409.90;107750;1254;70477;-68
2024/03/03 10:17:07;;;;;;;10.50;5.40;;;;;;;14.16;32.17;100404.30;107932;1253;72437;-68
2024/03/03 10:19:34;;;;;;;15.10;5.50;;;;;;;14.27;32.06;100402.55;107952;1254;61421;-68
2024/03/03 10:22:02;;;;;;;9.30;4.90;;;;;;;14.32;32.32;100404.75;107912;1254;62350;-68
2024/03/03 10:24:30;;;;;;;11.50;5.80;;;;;;;14.18;32.14;100401.38;107896;1260;73166;-68
2024/03/03 10:27:00;;;;;;;14.10;5.60;;;;;;;14.14;31.96;100401.90;108112;1254;70311;-67
2024/03/03 10:29:28;;;;;;;12.10;5.40;;;;;;;13.88;32.36;100404.16;108078;1254;74946;-66
2024/03/03 10:31:58;;;;;;;10.70;5.80;;;;;;;13.94;32.58;100396.52;108139;1254;59535;-69
2024/03/03 10:34:26;;;;;;;16.30;5.50;;;;;;;13.94;32.30;100398.59;108180;1253;59762;-68
2024/03/03 10:37:00;;;;;;;17.00;6.40;;;;;;;13.98;32.08;100396.48;108151;1253;73021;-68
2024/03/03 10:39:35;;;;;;;17.10;6.80;;;;;;;14.00;32.28;100396.55;108067;1253;71552;-68
2024/03/03 10:42:10;;;;;;;16.00;6.40;;;;;;;14.22;32.16;100392.69;108042;1254;73923;-68
2024/03/03 10:44:37;;;;;;;14.60;6.50;;;;;;;14.31;32.16;100395.44;108094;1257;59546;-68
2024/03/03 10:47:07;;;;;;;16.60;5.80;;;;;;;14.00;32.50;100396.21;108022;1253;59924;-68
2024/03/03 10:49:35;;;;;;;20.40;6.40;;;;;;;13.75;32.99;100398.07;108140;1253;73537;-68
2024/03/03 10:52:03;;;;;;;12.60;6.80;;;;;;;13.56;33.44;100401.59;108112;1254;70519;-68
2024/03/03 10:54:31;;;;;;;10.20;5.80;;;;;;;13.29;33.71;100397.32;108061;1256;72144;-68
2024/03/03 10:56:58;;;;;;;11.80;6.40;;;;;;;13.09;34.18;100395.70;108056;1253;59554;-67
2024/03/03 10:59:27;;;;;;;15.90;6.20;;;;;;;12.85;34.58;100394.77;108115;1253;59556;-68
2024/03/03 11:01:58;;;;;;;11.60;5.90;;;;;;;12.80;34.70;100395.34;108068;1254;75322;-68
2024/03/03 11:04:30;;;;;;;18.90;6.50;;;;;;;12.85;34.69;100397.62;108050;1259;72618;-68
2024/03/03 11:06:58;;;;;;;;;;;;;;;12.58;34.99;100393.41;108163;1254;74817;-68
2024/03/03 11:09:26;;;;;;;18.10;6.90;;;;;;;12.42;35.49;100393.73;108185;1254;60872;-68
2024/03/03 11:12:00;;;;;;;17.30;6.60;;;;;;;12.50;35.66;100390.94;108193;1254;59407;-68
2024/03/03 11:14:37;;;;;;;11.40;6.00;;;;;;;12.57;35.45;100385.70;108111;1254;75352;-67